Time;durP1;ratioP1;P1;durP2;ratioP2;P2;SDS_P1;SDS_P2;PMS_P1;PMS_P2;Temp;Humidity;BMP_temperature;BMP_pressure;BME280_temperature;BME280_humidity;BME280_pressure;Samples;Min_cycle;Max_cycle;Signal;HPM_P1;HPM_P2
2022/05/25 00:01:48;;;;;;;17.77;3.53;;;;;;;;;;5059652;28;20033;-72
2022/05/25 00:04:14;;;;;;;20.65;3.22;;;;;;;;;;5037015;28;20044;-71
2022/05/25 00:06:42;;;;;;;20.13;3.28;;;;;;;;;;5044584;28;20042;-71
2022/05/25 00:09:10;;;;;;;19.50;3.17;;;;;;;;;;5036601;28;20196;-71
2022/05/25 00:11:38;;;;;;;14.05;2.92;;;;;;;;;;5059407;28;20619;-71
2022/05/25 00:14:09;;;;;;;15.52;2.70;;;;;;;;;;5018282;28;20642;-70
2022/05/25 00:16:37;;;;;;;17.35;3.38;;;;;;;;;;5044785;28;20043;-73
2022/05/25 00:21:50;;;;;;;15.77;3.35;;;;;;;;;;5054586;28;20047;-73
2022/05/25 00:24:17;;;;;;;19.85;3.95;;;;;;;;;;5050726;28;20106;-73
2022/05/25 00:26:44;;;;;;;28.77;4.97;;;;;;;;;;5029945;28;20048;-73
2022/05/25 00:29:10;;;;;;;;;;;;;;;;;;5057011;28;20043;-74
2022/05/25 00:31:38;;;;;;;20.20;4.15;;;;;;;;;;5054971;28;20265;-72
2022/05/25 00:34:07;;;;;;;21.42;4.20;;;;;;;;;;5057762;28;20035;-73
2022/05/25 00:36:44;;;;;;;21.27;3.30;;;;;;;;;;5074936;28;20040;-70
2022/05/25 00:39:11;;;;;;;16.73;3.00;;;;;;;;;;5073025;28;20115;-70
2022/05/25 00:41:39;;;;;;;15.70;3.22;;;;;;;;;;5074754;28;20031;-71
2022/05/25 00:44:08;;;;;;;16.35;3.13;;;;;;;;;;5056923;28;20089;-70
2022/05/25 00:46:39;;;;;;;13.30;2.75;;;;;;;;;;5081250;28;20044;-70
2022/05/25 00:49:16;;;;;;;12.85;2.88;;;;;;;;;;5041688;28;20039;-71
2022/05/25 00:51:45;;;;;;;14.40;3.33;;;;;;;;;;5084364;28;20360;-71
2022/05/25 00:54:20;;;;;;;9.32;2.17;;;;;;;;;;5054701;27;20047;-73
2022/05/25 00:56:49;;;;;;;10.40;2.10;;;;;;;;;;5079064;27;20039;-71
2022/05/25 00:59:21;;;;;;;9.10;1.73;;;;;;;;;;5055041;27;20038;-70
2022/05/25 01:01:49;;;;;;;7.57;1.30;;;;;;;;;;5080433;27;20573;-71
2022/05/25 01:04:16;;;;;;;6.30;1.13;;;;;;;;;;5067185;27;20447;-71
2022/05/25 01:06:43;;;;;;;;;;;;;;;;;;5076295;27;20401;-70
2022/05/25 01:09:26;;;;;;;9.90;1.50;;;;;;;;;;5052458;28;19974;-70
2022/05/25 01:12:16;;;;;;;6.80;1.25;;;;;;;;;;5047865;28;20494;-71
2022/05/25 01:14:50;;;;;;;7.57;0.90;;;;;;;;;;5036086;28;20039;-71
2022/05/25 01:17:46;;;;;;;4.00;0.80;;;;;;;;;;5032620;28;20024;-73
2022/05/25 01:20:20;;;;;;;4.53;0.80;;;;;;;;;;4950175;28;20046;-73
2022/05/25 01:23:02;;;;;;;4.15;0.75;;;;;;;;;;4954969;28;20034;-73
2022/05/25 01:25:59;;;;;;;4.22;0.80;;;;;;;;;;4957236;28;20128;-73
2022/05/25 01:28:26;;;;;;;;;;;;;;;;;;4870148;29;20063;-74
2022/05/25 01:31:01;;;;;;;2.90;0.65;;;;;;;;;;4889911;29;19937;-74
2022/05/25 01:33:36;;;;;;;4.43;0.70;;;;;;;;;;4890994;29;20043;-73
2022/05/25 01:36:11;;;;;;;3.80;0.70;;;;;;;;;;4887550;29;20047;-74
2022/05/25 01:38:42;;;;;;;3.10;0.47;;;;;;;;;;4890191;29;20361;-74
2022/05/25 01:41:11;;;;;;;4.03;0.63;;;;;;;;;;4872615;29;20368;-74
2022/05/25 01:43:41;;;;;;;5.50;0.70;;;;;;;;;;4898489;29;20039;-74
2022/05/25 01:46:28;;;;;;;3.33;0.75;;;;;;;;;;4894145;29;20044;-73
2022/05/25 01:48:56;;;;;;;1.85;0.50;;;;;;;;;;4897950;29;20040;-72
2022/05/25 01:51:29;;;;;;;3.95;0.75;;;;;;;;;;4878476;29;20044;-72
2022/05/25 01:53:57;;;;;;;3.42;0.80;;;;;;;;;;4893186;29;20549;-73
2022/05/25 01:56:26;;;;;;;2.72;0.70;;;;;;;;;;4896526;29;20078;-71
2022/05/25 01:58:56;;;;;;;2.78;0.60;;;;;;;;;;4913289;29;20035;-72
2022/05/25 02:01:24;;;;;;;3.67;0.73;;;;;;;;;;4915510;29;20705;-72
2022/05/25 02:07:02;;;;;;;5.05;1.00;;;;;;;;;;5033841;28;20119;-72
2022/05/25 02:10:06;;;;;;;6.15;1.00;;;;;;;;;;5022467;28;20040;-71
2022/05/25 02:12:33;;;;;;;6.45;1.13;;;;;;;;;;4947845;28;20043;-71
2022/05/25 02:15:05;;;;;;;5.05;1.05;;;;;;;;;;4940605;28;20034;-72
2022/05/25 02:17:50;;;;;;;6.88;1.23;;;;;;;;;;4956878;28;20042;-72
2022/05/25 02:20:36;;;;;;;7.03;1.42;;;;;;;;;;4948475;28;20039;-73
2022/05/25 02:23:05;;;;;;;8.77;1.48;;;;;;;;;;4957341;28;20033;-72
2022/05/25 02:25:34;;;;;;;6.85;1.33;;;;;;;;;;4954457;28;20046;-73
2022/05/25 02:28:12;;;;;;;7.70;1.23;;;;;;;;;;4961101;28;20245;-73
2022/05/25 02:30:43;;;;;;;9.93;1.38;;;;;;;;;;4943541;28;20045;-73
2022/05/25 02:33:16;;;;;;;6.65;1.45;;;;;;;;;;4933274;28;20749;-73
2022/05/25 02:35:44;;;;;;;7.57;1.45;;;;;;;;;;4948250;28;20377;-73
2022/05/25 02:38:32;;;;;;;9.93;1.85;;;;;;;;;;4955375;28;20031;-73
2022/05/25 02:41:05;;;;;;;9.63;1.58;;;;;;;;;;4959131;28;20052;-73
2022/05/25 02:43:37;;;;;;;11.38;2.08;;;;;;;;;;4964268;28;20125;-73
2022/05/25 02:46:06;;;;;;;11.57;1.83;;;;;;;;;;4991197;28;20052;-75
2022/05/25 02:48:34;;;;;;;14.60;2.30;;;;;;;;;;5044177;28;20029;-73
2022/05/25 02:51:07;;;;;;;15.32;2.22;;;;;;;;;;5024589;28;20029;-73
2022/05/25 02:53:35;;;;;;;16.08;2.70;;;;;;;;;;5002538;28;20048;-73
2022/05/25 02:56:03;;;;;;;12.10;2.42;;;;;;;;;;4979914;28;20034;-73
2022/05/25 02:58:29;;;;;;;12.43;1.92;;;;;;;;;;4998883;28;20095;-73
2022/05/25 03:00:58;;;;;;;14.75;2.10;;;;;;;;;;5000977;28;20088;-73
2022/05/25 03:03:28;;;;;;;16.90;2.70;;;;;;;;;;5003137;28;20029;-74
2022/05/25 03:05:57;;;;;;;16.35;2.97;;;;;;;;;;5002839;28;20167;-75
2022/05/25 03:08:27;;;;;;;13.80;2.30;;;;;;;;;;4999432;28;20578;-74
2022/05/25 03:10:54;;;;;;;16.13;2.40;;;;;;;;;;5001368;28;20057;-74
2022/05/25 03:13:21;;;;;;;10.50;2.03;;;;;;;;;;4974304;28;20053;-74
2022/05/25 03:15:49;;;;;;;11.55;2.20;;;;;;;;;;4985121;28;20036;-74
2022/05/25 03:18:18;;;;;;;10.48;1.98;;;;;;;;;;5001168;28;20049;-74
2022/05/25 03:20:45;;;;;;;14.95;2.58;;;;;;;;;;4989860;28;20056;-74
2022/05/25 03:23:12;;;;;;;11.63;2.10;;;;;;;;;;4999309;28;20056;-74
2022/05/25 03:25:40;;;;;;;14.90;2.53;;;;;;;;;;5004807;28;20041;-74
2022/05/25 03:28:10;;;;;;;10.40;2.00;;;;;;;;;;4997600;28;20043;-74
2022/05/25 03:30:39;;;;;;;11.40;1.92;;;;;;;;;;4982077;28;20534;-74
2022/05/25 03:33:15;;;;;;;7.90;1.58;;;;;;;;;;4998902;28;20029;-74
2022/05/25 03:35:45;;;;;;;7.85;1.50;;;;;;;;;;5008198;28;20041;-74
2022/05/25 03:38:11;;;;;;;8.70;1.33;;;;;;;;;;5004937;28;20184;-74
2022/05/25 03:40:38;;;;;;;9.48;1.90;;;;;;;;;;5003026;28;20045;-74
2022/05/25 03:43:10;;;;;;;11.50;1.70;;;;;;;;;;5000842;28;20611;-73
2022/05/25 03:45:41;;;;;;;7.53;1.50;;;;;;;;;;4986361;28;20073;-74
2022/05/25 03:48:09;;;;;;;8.77;1.52;;;;;;;;;;4994979;28;20041;-74
2022/05/25 03:50:41;;;;;;;10.50;1.65;;;;;;;;;;5034890;28;20497;-74
2022/05/25 03:53:12;;;;;;;9.43;1.83;;;;;;;;;;5042174;28;20036;-75
2022/05/25 03:55:44;;;;;;;8.23;1.40;;;;;;;;;;5045777;28;20039;-74
2022/05/25 03:58:12;;;;;;;7.38;1.27;;;;;;;;;;5050860;28;20033;-74
2022/05/25 04:00:41;;;;;;;7.28;1.52;;;;;;;;;;5041224;28;20048;-74
2022/05/25 04:03:16;;;;;;;10.70;1.55;;;;;;;;;;5058429;28;20389;-74
2022/05/25 04:05:43;;;;;;;8.13;1.40;;;;;;;;;;5056100;28;20097;-74
2022/05/25 04:08:11;;;;;;;8.57;1.75;;;;;;;;;;5065160;28;20135;-74
2022/05/25 04:10:38;;;;;;;8.48;1.60;;;;;;;;;;5041860;28;20584;-74
2022/05/25 04:13:05;;;;;;;10.05;1.45;;;;;;;;;;5040213;28;20035;-74
2022/05/25 04:15:32;;;;;;;7.85;1.33;;;;;;;;;;5071453;28;20606;-74
2022/05/25 04:17:58;;;;;;;10.45;1.42;;;;;;;;;;5053717;28;20043;-74
2022/05/25 04:20:24;;;;;;;;;;;;;;;;;;5040398;28;20039;-74
2022/05/25 04:22:53;;;;;;;10.10;1.60;;;;;;;;;;5063598;28;20281;-73
2022/05/25 04:25:24;;;;;;;9.80;1.52;;;;;;;;;;5011098;28;20486;-74
2022/05/25 04:27:52;;;;;;;9.45;1.50;;;;;;;;;;5056922;28;20028;-75
2022/05/25 04:30:29;;;;;;;8.57;1.70;;;;;;;;;;5070219;28;20115;-74
2022/05/25 04:33:01;;;;;;;8.77;1.48;;;;;;;;;;5045763;28;20021;-74
2022/05/25 04:35:28;;;;;;;6.93;1.55;;;;;;;;;;5067631;28;20077;-75
2022/05/25 04:37:57;;;;;;;8.25;1.50;;;;;;;;;;5046869;28;20024;-75
2022/05/25 04:40:27;;;;;;;9.70;1.33;;;;;;;;;;5056691;28;20028;-75
2022/05/25 04:42:55;;;;;;;10.18;1.42;;;;;;;;;;5062691;28;20540;-75
2022/05/25 04:45:25;;;;;;;8.50;1.50;;;;;;;;;;5044031;28;21817;-75
2022/05/25 04:47:55;;;;;;;6.93;1.10;;;;;;;;;;5063793;28;20571;-75
2022/05/25 04:50:23;;;;;;;6.32;1.20;;;;;;;;;;5064639;28;20520;-74
2022/05/25 04:52:51;;;;;;;5.13;1.20;;;;;;;;;;5053793;28;20110;-74
2022/05/25 04:58:03;;;;;;;8.63;1.42;;;;;;;;;;5066918;28;20109;-74
2022/05/25 05:00:35;;;;;;;8.80;1.17;;;;;;;;;;5048450;28;20028;-73
2022/05/25 05:03:02;;;;;;;8.27;1.55;;;;;;;;;;5021898;28;20473;-73
2022/05/25 05:05:30;;;;;;;11.38;2.03;;;;;;;;;;5054769;28;20036;-73
2022/05/25 05:07:56;;;;;;;11.48;1.85;;;;;;;;;;5059857;28;20439;-73
2022/05/25 05:10:25;;;;;;;12.73;2.05;;;;;;;;;;5061954;28;20513;-73
2022/05/25 05:12:56;;;;;;;12.48;1.63;;;;;;;;;;5059388;28;20525;-73
2022/05/25 05:15:24;;;;;;;13.07;2.28;;;;;;;;;;5043295;28;20137;-73
2022/05/25 05:17:53;;;;;;;13.88;2.10;;;;;;;;;;5047564;28;20032;-73
2022/05/25 05:20:20;;;;;;;13.20;2.28;;;;;;;;;;5064447;28;20043;-73
2022/05/25 05:22:49;;;;;;;12.15;2.10;;;;;;;;;;5067706;28;20035;-73
2022/05/25 05:25:16;;;;;;;12.25;2.45;;;;;;;;;;5045782;28;20035;-75
2022/05/25 05:27:42;;;;;;;;;;;;;;;;;;5072220;28;20135;-73
2022/05/25 05:30:11;;;;;;;11.82;2.00;;;;;;;;;;5047873;28;19981;-73
2022/05/25 05:32:39;;;;;;;11.73;2.20;;;;;;;;;;5065038;28;20054;-73
2022/05/25 05:35:07;;;;;;;14.82;2.42;;;;;;;;;;5044656;28;20456;-73
2022/05/25 05:37:46;;;;;;;15.38;2.50;;;;;;;;;;5044567;28;20078;-73
2022/05/25 05:40:16;;;;;;;13.27;2.42;;;;;;;;;;5042420;28;20040;-73
2022/05/25 05:42:49;;;;;;;13.77;2.15;;;;;;;;;;5068388;28;20028;-73
2022/05/25 05:45:18;;;;;;;12.98;2.35;;;;;;;;;;5008725;28;20048;-73
2022/05/25 05:47:50;;;;;;;11.95;2.08;;;;;;;;;;5064596;28;20039;-73
2022/05/25 05:50:18;;;;;;;13.82;2.55;;;;;;;;;;5063730;28;20052;-73
2022/05/25 05:52:45;;;;;;;14.63;2.30;;;;;;;;;;5072085;28;20502;-72
2022/05/25 05:55:11;;;;;;;;;;;;;;;;;;5042890;28;20031;-72
2022/05/25 05:57:39;;;;;;;11.02;2.00;;;;;;;;;;5046059;28;19947;-72
2022/05/25 06:00:09;;;;;;;12.77;2.75;;;;;;;;;;5063554;28;20034;-73
2022/05/25 06:02:37;;;;;;;15.32;2.60;;;;;;;;;;5064633;28;20335;-72
2022/05/25 06:05:06;;;;;;;12.77;2.05;;;;;;;;;;5062145;28;20630;-72
2022/05/25 06:07:37;;;;;;;14.80;2.30;;;;;;;;;;5064342;28;20055;-72
2022/05/25 06:10:07;;;;;;;13.63;2.22;;;;;;;;;;5056202;28;20044;-72
2022/05/25 06:12:35;;;;;;;13.90;2.63;;;;;;;;;;5043069;28;20021;-72
2022/05/25 06:19:25;;;;;;;13.15;2.00;;;;;;;;;;5030059;28;20075;-73
2022/05/25 06:20:36;;;;;;;14.75;2.78;;;;;;;;;;5058400;28;20470;-73
2022/05/25 06:23:03;;;;;;;14.68;2.55;;;;;;;;;;5033641;28;20469;-73
2022/05/25 06:25:30;;;;;;;17.00;2.97;;;;;;;;;;5041879;28;20035;-73
2022/05/25 06:27:58;;;;;;;21.52;3.35;;;;;;;;;;5060925;28;20028;-72
2022/05/25 06:30:24;;;;;;;19.63;2.97;;;;;;;;;;5053590;28;20140;-72
2022/05/25 06:32:52;;;;;;;16.23;2.90;;;;;;;;;;5058282;28;20474;-72
2022/05/25 06:35:19;;;;;;;17.92;3.10;;;;;;;;;;5059072;28;20110;-73
2022/05/25 06:37:48;;;;;;;16.63;3.03;;;;;;;;;;5062667;28;20024;-73
2022/05/25 06:40:14;;;;;;;20.95;3.17;;;;;;;;;;5059014;28;20036;-73
2022/05/25 06:42:43;;;;;;;22.85;3.20;;;;;;;;;;5060182;28;20016;-72
2022/05/25 06:45:13;;;;;;;17.48;2.97;;;;;;;;;;5037644;28;20044;-73
2022/05/25 06:47:39;;;;;;;18.60;3.30;;;;;;;;;;5058959;28;20054;-73
2022/05/25 06:50:07;;;;;;;;;;;;;;;;;;5020806;28;20116;-73
2022/05/25 06:52:35;;;;;;;15.20;2.60;;;;;;;;;;5054539;28;19912;-73
2022/05/25 06:55:01;;;;;;;17.55;3.17;;;;;;;;;;5024723;28;20028;-73
2022/05/25 06:57:27;;;;;;;18.10;3.00;;;;;;;;;;5057720;28;20382;-73
2022/05/25 06:59:55;;;;;;;19.33;2.80;;;;;;;;;;5054821;28;20043;-72
2022/05/25 07:02:23;;;;;;;20.08;3.10;;;;;;;;;;5054303;28;20043;-72
2022/05/25 07:04:49;;;;;;;16.05;2.72;;;;;;;;;;5024757;28;20535;-73
2022/05/25 07:07:15;;;;;;;;;;;;;;;;;;5040440;28;20033;-72
2022/05/25 07:09:43;;;;;;;13.23;2.50;;;;;;;;;;5060809;28;20266;-72
2022/05/25 07:12:09;;;;;;;16.52;2.40;;;;;;;;;;5052541;28;20083;-72
2022/05/25 07:14:36;;;;;;;;;;;;;;;;;;5040732;28;20024;-72
2022/05/25 07:17:03;;;;;;;16.95;2.28;;;;;;;;;;5040488;28;19916;-72
2022/05/25 07:19:30;;;;;;;16.88;2.80;;;;;;;;;;5051809;28;20557;-72
2022/05/25 07:21:58;;;;;;;15.15;2.70;;;;;;;;;;5059172;28;20115;-72
2022/05/25 07:24:25;;;;;;;15.50;2.53;;;;;;;;;;5056647;28;20679;-73
2022/05/25 07:26:53;;;;;;;;;;;;;;;;;;5054390;28;20512;-72
2022/05/25 07:29:20;;;;;;;13.68;2.83;;;;;;;;;;5034001;28;19998;-74
2022/05/25 07:32:01;;;;;;;16.38;2.70;;;;;;;;;;5020822;28;20127;-72
2022/05/25 07:34:49;;;;;;;19.08;2.78;;;;;;;;;;5005305;28;20052;-72
2022/05/25 07:37:23;;;;;;;14.88;2.88;;;;;;;;;;5018989;28;20028;-72
2022/05/25 07:39:55;;;;;;;14.18;2.53;;;;;;;;;;5007461;28;21622;-72
2022/05/25 07:42:23;;;;;;;12.15;2.25;;;;;;;;;;5024345;28;20029;-71
2022/05/25 07:44:57;;;;;;;12.13;2.50;;;;;;;;;;5025190;28;20056;-73
2022/05/25 07:47:26;;;;;;;20.85;3.38;;;;;;;;;;5009391;28;20048;-73
2022/05/25 07:49:52;;;;;;;15.75;3.65;;;;;;;;;;4993056;28;20028;-73
2022/05/25 07:52:25;;;;;;;13.90;2.67;;;;;;;;;;5022960;28;20048;-72
2022/05/25 07:54:51;;;;;;;14.07;2.53;;;;;;;;;;4988601;28;20139;-72
2022/05/25 07:57:21;;;;;;;14.60;2.55;;;;;;;;;;5022025;28;20049;-72
2022/05/25 07:59:47;;;;;;;16.38;2.80;;;;;;;;;;5023338;28;20044;-72
2022/05/25 08:08:02;;;;;;;13.75;2.97;;;;;;;;;;5023080;28;20182;-71
2022/05/25 08:10:30;;;;;;;14.02;2.95;;;;;;;;;;5003008;28;20111;-71
2022/05/25 08:12:59;;;;;;;12.10;2.90;;;;;;;;;;4973901;28;20119;-74
2022/05/25 08:15:26;;;;;;;12.70;2.33;;;;;;;;;;4971775;28;20025;-72
2022/05/25 08:17:55;;;;;;;15.07;2.55;;;;;;;;;;5009634;28;20033;-72
2022/05/25 08:20:24;;;;;;;15.68;2.67;;;;;;;;;;5001843;28;20069;-72
2022/05/25 08:22:50;;;;;;;16.50;3.25;;;;;;;;;;5005647;28;20044;-70
2022/05/25 08:25:20;;;;;;;15.38;3.13;;;;;;;;;;5035810;28;20029;-71
2022/05/25 08:27:47;;;;;;;13.65;2.65;;;;;;;;;;5017809;28;20044;-71
2022/05/25 08:30:18;;;;;;;14.82;2.88;;;;;;;;;;5030130;28;20057;-71
2022/05/25 08:32:44;;;;;;;12.27;2.88;;;;;;;;;;5038528;28;20477;-72
2022/05/25 08:35:14;;;;;;;17.70;3.85;;;;;;;;;;5038010;28;20771;-72
2022/05/25 08:37:41;;;;;;;12.02;3.00;;;;;;;;;;5022923;28;20039;-72
2022/05/25 08:40:14;;;;;;;11.75;2.55;;;;;;;;;;5041070;28;20029;-71
2022/05/25 08:42:56;;;;;;;14.98;3.55;;;;;;;;;;5027962;28;20058;-74
2022/05/25 08:45:24;;;;;;;14.25;2.83;;;;;;;;;;5036469;28;22376;-72
2022/05/25 08:47:57;;;;;;;15.55;3.67;;;;;;;;;;5005107;28;20045;-72
2022/05/25 08:50:24;;;;;;;12.80;2.80;;;;;;;;;;5021918;28;20751;-72
2022/05/25 08:52:55;;;;;;;15.45;3.47;;;;;;;;;;5019435;28;20083;-72
2022/05/25 08:55:56;;;;;;;15.88;3.22;;;;;;;;;;5002984;28;20510;-72
2022/05/25 08:58:28;;;;;;;17.30;3.50;;;;;;;;;;4981023;28;20280;-72
2022/05/25 09:00:57;;;;;;;14.50;2.85;;;;;;;;;;4979593;28;20052;-71
2022/05/25 09:03:36;;;;;;;13.85;2.80;;;;;;;;;;4968302;28;20076;-72
2022/05/25 09:06:31;;;;;;;13.18;2.85;;;;;;;;;;4998488;28;20052;-72
2022/05/25 09:09:04;;;;;;;15.60;3.13;;;;;;;;;;4963018;28;20046;-72
2022/05/25 09:11:38;;;;;;;18.00;3.05;;;;;;;;;;4951367;28;20022;-72
2022/05/25 09:14:23;;;;;;;17.95;3.97;;;;;;;;;;4963377;28;20050;-74
2022/05/25 09:16:53;;;;;;;14.07;3.00;;;;;;;;;;4950061;28;20144;-72
2022/05/25 09:19:28;;;;;;;14.65;2.78;;;;;;;;;;4931234;28;20154;-72
2022/05/25 09:22:00;;;;;;;12.63;2.50;;;;;;;;;;4934308;28;20042;-74
2022/05/25 09:24:29;;;;;;;12.43;2.65;;;;;;;;;;4952172;28;20080;-74
2022/05/25 09:26:57;;;;;;;12.55;2.80;;;;;;;;;;4939740;28;20046;-77
2022/05/25 09:29:25;;;;;;;12.32;2.70;;;;;;;;;;4931970;28;20047;-80
2022/05/25 09:32:17;;;;;;;13.57;2.80;;;;;;;;;;4965930;28;20559;-79
2022/05/25 09:35:00;;;;;;;14.35;2.70;;;;;;;;;;4979164;28;20684;-79
2022/05/25 09:37:46;;;;;;;13.65;2.35;;;;;;;;;;4985571;28;20566;-78
2022/05/25 09:40:38;;;;;;;12.93;2.67;;;;;;;;;;4982049;28;20096;-79
2022/05/25 09:43:06;;;;;;;11.10;2.00;;;;;;;;;;4977616;28;20037;-78
2022/05/25 09:45:44;;;;;;;14.93;2.92;;;;;;;;;;5009659;28;20099;-78
2022/05/25 09:48:28;;;;;;;12.25;2.40;;;;;;;;;;5044403;28;20036;-78
2022/05/25 09:51:24;;;;;;;12.55;2.50;;;;;;;;;;5055819;28;20082;-78
2022/05/25 09:53:58;;;;;;;14.05;2.45;;;;;;;;;;5006306;28;20038;-78
2022/05/25 09:56:40;;;;;;;12.63;2.75;;;;;;;;;;5002180;28;20546;-78
2022/05/25 09:59:13;;;;;;;12.32;2.40;;;;;;;;;;5015470;28;20042;-78
2022/05/25 10:01:46;;;;;;;13.18;2.47;;;;;;;;;;4989063;28;20093;-78
2022/05/25 10:04:19;;;;;;;18.20;2.67;;;;;;;;;;5000254;28;20636;-78
2022/05/25 10:06:51;;;;;;;13.98;2.90;;;;;;;;;;5002969;28;20065;-77
2022/05/25 10:09:28;;;;;;;12.73;2.47;;;;;;;;;;5002794;28;20267;-78
2022/05/25 10:11:57;;;;;;;14.32;2.80;;;;;;;;;;5007864;28;20034;-80
2022/05/25 10:14:35;;;;;;;12.90;2.75;;;;;;;;;;5004510;28;20042;-78
2022/05/25 10:17:09;;;;;;;13.93;2.55;;;;;;;;;;5004491;28;20037;-77
2022/05/25 10:19:46;;;;;;;13.85;2.60;;;;;;;;;;5000012;28;20041;-78
2022/05/25 10:22:35;;;;;;;12.80;2.22;;;;;;;;;;4999219;28;20040;-78
2022/05/25 10:25:24;;;;;;;10.95;2.33;;;;;;;;;;5034977;28;20149;-78
2022/05/25 10:27:51;;;;;;;16.27;2.33;;;;;;;;;;4986976;28;20054;-79
2022/05/25 10:36:49;;;;;;;27.50;8.43;;;;;;;;;;4995442;28;20622;-78
2022/05/25 10:39:30;;;;;;;15.35;3.65;;;;;;;;;;4995602;28;20345;-77
2022/05/25 10:42:10;;;;;;;16.65;2.88;;;;;;;;;;4999629;28;20144;-78
2022/05/25 10:44:49;;;;;;;9.60;2.15;;;;;;;;;;4983697;28;20045;-78
2022/05/25 10:47:34;;;;;;;14.55;2.85;;;;;;;;;;4979095;28;20682;-78
2022/05/25 10:50:09;;;;;;;11.57;2.63;;;;;;;;;;4997296;28;20508;-80
2022/05/25 10:52:42;;;;;;;14.55;2.78;;;;;;;;;;5003190;28;20045;-78
2022/05/25 10:55:12;;;;;;;13.30;2.60;;;;;;;;;;4999273;28;20030;-80
2022/05/25 10:58:05;;;;;;;11.93;2.40;;;;;;;;;;5000311;28;20044;-80
2022/05/25 11:00:35;;;;;;;14.50;2.50;;;;;;;;;;5000149;28;20052;-80
2022/05/25 11:03:24;;;;;;;14.80;2.38;;;;;;;;;;4995560;28;20041;-77
2022/05/25 11:06:00;;;;;;;13.38;2.50;;;;;;;;;;5055916;28;20558;-79
2022/05/25 11:08:47;;;;;;;12.68;2.25;;;;;;;;;;5059884;28;20258;-79
2022/05/25 11:11:17;;;;;;;14.48;2.53;;;;;;;;;;5040503;28;20540;-79
2022/05/25 11:14:07;;;;;;;13.65;2.53;;;;;;;;;;5063795;28;20522;-79
2022/05/25 11:16:41;;;;;;;11.13;1.85;;;;;;;;;;5050504;28;20024;-78
2022/05/25 11:19:22;;;;;;;12.50;2.30;;;;;;;;;;5027454;28;20049;-78
2022/05/25 11:22:05;;;;;;;12.98;2.22;;;;;;;;;;5056893;28;20031;-78
2022/05/25 11:24:56;;;;;;;12.05;2.53;;;;;;;;;;5049003;28;20544;-78
2022/05/25 11:27:49;;;;;;;12.30;2.40;;;;;;;;;;4994150;28;20923;-78
2022/05/25 11:30:33;;;;;;;13.25;2.70;;;;;;;;;;4986446;28;20907;-79
2022/05/25 11:33:18;;;;;;;10.93;2.25;;;;;;;;;;4995961;28;20056;-78
2022/05/25 11:36:02;;;;;;;12.15;2.40;;;;;;;;;;4997965;28;20174;-78
2022/05/25 11:38:29;;;;;;;13.25;2.63;;;;;;;;;;4995907;28;20045;-78
2022/05/25 11:41:04;;;;;;;11.45;2.60;;;;;;;;;;4994881;28;20412;-78
2022/05/25 11:43:38;;;;;;;13.68;2.65;;;;;;;;;;4995070;28;20034;-77
2022/05/25 11:46:23;;;;;;;13.35;2.40;;;;;;;;;;4990906;28;20049;-77
2022/05/25 11:48:56;;;;;;;12.10;2.42;;;;;;;;;;4976112;28;20087;-77
2022/05/25 11:51:31;;;;;;;12.80;2.30;;;;;;;;;;4953350;28;25558;-77
2022/05/25 11:54:21;;;;;;;12.32;2.53;;;;;;;;;;4974489;28;20563;-77
2022/05/25 11:56:53;;;;;;;10.63;2.25;;;;;;;;;;4977332;28;20067;-77
2022/05/25 11:59:39;;;;;;;13.93;2.47;;;;;;;;;;4969321;28;20530;-77
2022/05/25 12:02:21;;;;;;;10.63;2.70;;;;;;;;;;4972070;28;20041;-77
2022/05/25 12:04:54;;;;;;;12.13;2.90;;;;;;;;;;5029341;28;20360;-80
2022/05/25 12:07:44;;;;;;;15.18;2.72;;;;;;;;;;5064108;28;20043;-77
2022/05/25 12:10:22;;;;;;;15.02;3.22;;;;;;;;;;5052037;28;20639;-77
2022/05/25 12:13:07;;;;;;;12.95;2.70;;;;;;;;;;5060765;28;20520;-77
2022/05/25 12:15:53;;;;;;;13.55;2.97;;;;;;;;;;5060245;28;20330;-77
2022/05/25 12:18:25;;;;;;;11.90;2.47;;;;;;;;;;5060357;28;20032;-80
2022/05/25 12:21:00;;;;;;;12.48;2.60;;;;;;;;;;5044319;28;20555;-80
2022/05/25 12:23:32;;;;;;;10.32;2.28;;;;;;;;;;5067112;28;20764;-81
2022/05/25 12:26:02;;;;;;;14.43;2.80;;;;;;;;;;5067533;28;20024;-79
2022/05/25 12:28:37;;;;;;;14.77;2.83;;;;;;;;;;5043475;28;20438;-79
2022/05/25 12:31:17;;;;;;;12.18;2.47;;;;;;;;;;5040826;28;20040;-77
2022/05/25 12:33:45;;;;;;;11.93;2.33;;;;;;;;;;5064926;28;20128;-78
2022/05/25 12:36:14;;;;;;;11.68;2.20;;;;;;;;;;5062266;28;20028;-78
2022/05/25 12:38:46;;;;;;;13.18;2.60;;;;;;;;;;5042437;28;20757;-78
2022/05/25 12:41:25;;;;;;;14.45;2.67;;;;;;;;;;5060717;28;20109;-78
2022/05/25 12:43:59;;;;;;;16.35;3.20;;;;;;;;;;5050721;28;20442;-78
2022/05/25 12:49:43;;;;;;;15.95;2.55;;;;;;;;;;5030344;28;20542;-77
2022/05/25 12:52:29;;;;;;;11.20;2.50;;;;;;;;;;5061848;28;20644;-77
2022/05/25 12:55:26;;;;;;;15.45;2.95;;;;;;;;;;5066750;28;20098;-77
2022/05/25 12:57:55;;;;;;;10.93;2.08;;;;;;;;;;4987934;28;20309;-77
2022/05/25 13:00:35;;;;;;;15.02;2.42;;;;;;;;;;4982290;28;20037;-76
2022/05/25 13:03:20;;;;;;;17.08;3.00;;;;;;;;;;4986145;28;20754;-80
2022/05/25 13:06:02;;;;;;;14.27;2.95;;;;;;;;;;4990802;28;20029;-79
2022/05/25 13:08:49;;;;;;;12.13;2.17;;;;;;;;;;4987728;28;20513;-77
2022/05/25 13:11:34;;;;;;;12.82;2.63;;;;;;;;;;4985761;28;20042;-77
2022/05/25 13:14:02;;;;;;;16.65;2.67;;;;;;;;;;4974005;28;20444;-78
2022/05/25 13:17:06;;;;;;;14.65;2.47;;;;;;;;;;4991896;28;20072;-78
2022/05/25 13:19:47;;;;;;;9.75;2.15;;;;;;;;;;4919234;29;20043;-77
2022/05/25 13:22:22;;;;;;;13.95;2.83;;;;;;;;;;4914237;29;20050;-77
2022/05/25 13:25:06;;;;;;;13.07;2.50;;;;;;;;;;4935042;28;20035;-78
2022/05/25 13:27:58;;;;;;;11.38;2.08;;;;;;;;;;4931602;28;20047;-77
2022/05/25 13:30:58;;;;;;;12.15;2.10;;;;;;;;;;4934358;28;20047;-77
2022/05/25 13:33:27;;;;;;;10.55;2.53;;;;;;;;;;4931361;28;20102;-77
2022/05/25 13:35:58;;;;;;;12.73;2.38;;;;;;;;;;4985056;28;20049;-77
2022/05/25 13:38:34;;;;;;;13.00;2.40;;;;;;;;;;5012163;28;20056;-76
2022/05/25 13:41:21;;;;;;;9.32;2.08;;;;;;;;;;5004042;28;20214;-76
2022/05/25 13:44:15;;;;;;;20.42;2.90;;;;;;;;;;4974909;28;20044;-77
2022/05/25 13:46:50;;;;;;;10.75;2.72;;;;;;;;;;4996783;28;20196;-80
2022/05/25 13:49:38;;;;;;;13.68;2.92;;;;;;;;;;5002052;28;20037;-80
2022/05/25 13:52:20;;;;;;;10.32;1.92;;;;;;;;;;5038262;28;20387;-81
2022/05/25 13:54:56;;;;;;;11.30;1.92;;;;;;;;;;5043013;28;20491;-82
2022/05/25 13:57:45;;;;;;;12.25;2.28;;;;;;;;;;4996250;28;20669;-81
2022/05/25 14:00:19;;;;;;;12.95;2.42;;;;;;;;;;5032452;28;20570;-85
2022/05/25 14:02:50;;;;;;;12.10;1.93;;;;;;;;;;5013377;28;20041;-85
2022/05/25 14:05:22;;;;;;;11.60;2.30;;;;;;;;;;5023412;28;20151;-84
2022/05/25 14:07:50;;;;;;;11.20;2.30;;;;;;;;;;5020233;28;20068;-84
2022/05/25 14:13:22;;;;;;;10.15;2.10;;;;;;;;;;5031753;28;20085;-85
2022/05/25 14:16:11;;;;;;;16.08;2.90;;;;;;;;;;5030414;28;20033;-88
2022/05/25 14:19:02;;;;;;;11.82;2.30;;;;;;;;;;5030692;28;20076;-84
2022/05/25 14:21:49;;;;;;;11.27;2.22;;;;;;;;;;5013097;28;20425;-86
2022/05/25 14:24:37;;;;;;;9.77;2.40;;;;;;;;;;5027809;28;20040;-85
2022/05/25 14:27:23;;;;;;;11.65;2.40;;;;;;;;;;5022775;28;20365;-87
2022/05/25 14:29:51;;;;;;;11.50;2.22;;;;;;;;;;5031980;28;20066;-85
2022/05/25 14:32:28;;;;;;;11.40;2.85;;;;;;;;;;5027412;28;20025;-86
2022/05/25 14:35:00;;;;;;;13.40;2.83;;;;;;;;;;5027986;28;20123;-86
2022/05/25 14:37:31;;;;;;;11.30;2.65;;;;;;;;;;5025866;28;20489;-86
2022/05/25 14:39:58;;;;;;;11.30;2.40;;;;;;;;;;5021059;28;20624;-85
2022/05/25 14:42:28;;;;;;;11.52;2.10;;;;;;;;;;5010888;28;20045;-85
2022/05/25 14:45:04;;;;;;;10.75;2.28;;;;;;;;;;5022419;28;20063;-85
2022/05/25 14:47:35;;;;;;;13.30;2.40;;;;;;;;;;5004580;28;20291;-85
2022/05/25 14:50:22;;;;;;;11.27;2.10;;;;;;;;;;5005986;28;20040;-85
2022/05/25 14:52:51;;;;;;;9.65;1.75;;;;;;;;;;5066079;28;20028;-85
2022/05/25 14:55:32;;;;;;;11.10;1.85;;;;;;;;;;5047303;28;20033;-84
2022/05/25 14:58:17;;;;;;;11.02;2.10;;;;;;;;;;5047396;28;20036;-83
2022/05/25 15:00:51;;;;;;;10.10;2.13;;;;;;;;;;5068985;28;20318;-83
2022/05/25 15:03:29;;;;;;;10.95;2.20;;;;;;;;;;5069422;28;20023;-84
2022/05/25 15:06:05;;;;;;;10.40;1.70;;;;;;;;;;5046174;28;20127;-83
2022/05/25 15:08:35;;;;;;;11.88;1.90;;;;;;;;;;5070765;28;20103;-84
2022/05/25 15:11:36;;;;;;;7.30;1.50;;;;;;;;;;5066768;28;20048;-84
2022/05/25 15:20:21;;;;;;;7.50;1.42;;;;;;;;;;5068279;28;20031;-84
2022/05/25 15:23:00;;;;;;;11.20;2.10;;;;;;;;;;5048368;28;20031;-83
2022/05/25 15:25:46;;;;;;;9.05;1.50;;;;;;;;;;5057751;28;20043;-83
2022/05/25 15:28:14;;;;;;;;;;;;;;;;;;5063885;28;20035;-83
2022/05/25 15:30:54;;;;;;;10.85;1.50;;;;;;;;;;5046723;28;20381;-84
2022/05/25 15:33:21;;;;;;;9.77;1.67;;;;;;;;;;5045408;28;20558;-84
2022/05/25 15:35:51;;;;;;;7.22;1.35;;;;;;;;;;5076901;28;20047;-84
2022/05/25 15:38:21;;;;;;;9.90;1.58;;;;;;;;;;5083576;28;20027;-84
2022/05/25 15:40:49;;;;;;;8.50;1.70;;;;;;;;;;5071542;28;20027;-84
2022/05/25 15:43:19;;;;;;;7.95;1.40;;;;;;;;;;5078233;28;20106;-84
2022/05/25 15:45:52;;;;;;;8.52;1.60;;;;;;;;;;5080626;28;20036;-84
2022/05/25 15:48:23;;;;;;;6.47;1.20;;;;;;;;;;5090946;28;20046;-85
2022/05/25 15:50:51;;;;;;;7.38;1.52;;;;;;;;;;5084559;28;20085;-85